Time;durP1;ratioP1;P1;durP2;ratioP2;P2;SDS_P1;SDS_P2;PMS_P1;PMS_P2;Temp;Humidity;BMP_temperature;BMP_pressure;BME280_temperature;BME280_humidity;BME280_pressure;Samples;Min_cycle;Max_cycle;Signal;HPM_P1;HPM_P2
2022/06/10 00:00:58;;;;;;;2.20;1.20;;;;;;;11.21;100.00;97236.56;5048216;28;20289;-52
2022/06/10 00:03:27;;;;;;;1.40;1.00;;;;;;;11.19;100.00;97227.94;5055059;28;20627;-54
2022/06/10 00:05:57;;;;;;;1.40;1.23;;;;;;;11.20;100.00;97229.59;5053003;28;20257;-52
2022/06/10 00:08:29;;;;;;;2.20;1.33;;;;;;;11.19;100.00;97231.44;5054513;28;20203;-53
2022/06/10 00:10:56;;;;;;;1.03;1.03;;;;;;;11.18;100.00;97236.84;5054935;28;20207;-53
2022/06/10 00:13:25;;;;;;;1.33;1.30;;;;;;;11.11;100.00;97225.94;5054774;28;20217;-53
2022/06/10 00:15:53;;;;;;;1.50;1.20;;;;;;;11.09;100.00;97232.34;5052204;28;20321;-54
2022/06/10 00:18:20;;;;;;;1.77;1.30;;;;;;;11.06;100.00;97238.72;5053945;28;20203;-49
2022/06/10 00:20:48;;;;;;;2.43;1.23;;;;;;;11.12;100.00;97237.38;5054426;28;20217;-50
2022/06/10 00:23:17;;;;;;;2.33;1.37;;;;;;;11.13;100.00;97239.03;5054544;28;20297;-50
2022/06/10 00:25:45;;;;;;;1.40;1.30;;;;;;;11.11;100.00;97233.03;5054097;28;20294;-50
2022/06/10 00:28:12;;;;;;;1.47;1.33;;;;;;;11.11;100.00;97240.97;5054019;28;20644;-50
2022/06/10 00:30:39;;;;;;;2.17;1.17;;;;;;;11.05;100.00;97238.88;5051243;28;20306;-50
2022/06/10 00:33:07;;;;;;;2.53;1.23;;;;;;;11.04;100.00;97242.47;5055039;28;20210;-50
2022/06/10 00:35:34;;;;;;;4.27;1.43;;;;;;;10.99;100.00;97238.41;5055981;28;20297;-50
2022/06/10 00:38:01;;;;;;;2.17;1.50;;;;;;;10.99;100.00;97235.78;5054290;28;20229;-50
2022/06/10 00:40:33;;;;;;;2.00;1.40;;;;;;;10.96;100.00;97236.03;5055655;28;20306;-50
2022/06/10 00:43:00;;;;;;;1.73;1.20;;;;;;;10.97;100.00;97237.72;5053504;28;20710;-50
2022/06/10 00:45:59;;;;;;;1.53;1.13;;;;;;;10.96;100.00;97240.47;5053018;28;20215;-49
2022/06/10 00:48:33;;;;;;;1.80;1.40;;;;;;;10.94;100.00;97235.34;5045528;28;20295;-50
2022/06/10 00:51:02;;;;;;;1.50;1.40;;;;;;;10.87;100.00;97228.91;5054281;28;20301;-50
2022/06/10 00:53:32;;;;;;;4.33;1.30;;;;;;;10.79;100.00;97239.28;5053148;28;20607;-50
2022/06/10 00:56:01;;;;;;;2.93;1.23;;;;;;;10.79;100.00;97231.34;5053299;28;20648;-50
2022/06/10 00:58:33;;;;;;;1.50;1.40;;;;;;;10.78;100.00;97234.94;5054149;28;20527;-50
2022/06/10 01:01:01;;;;;;;2.10;1.30;;;;;;;10.80;100.00;97238.31;5054033;28;20639;-52
2022/06/10 01:03:28;;;;;;;3.33;1.27;;;;;;;10.80;100.00;97235.69;5053509;28;20294;-52
2022/06/10 01:05:55;;;;;;;1.90;1.27;;;;;;;10.75;100.00;97240.50;5053725;28;20202;-52
2022/06/10 01:08:22;;;;;;;2.63;1.50;;;;;;;10.73;100.00;97234.53;5069153;28;20308;-52
2022/06/10 01:10:57;;;;;;;3.20;1.40;;;;;;;10.76;100.00;97242.19;5072788;28;20302;-52
2022/06/10 01:13:34;;;;;;;2.43;1.40;;;;;;;10.69;100.00;97243.69;5074200;28;20299;-51
2022/06/10 01:16:06;;;;;;;3.60;1.47;;;;;;;10.70;100.00;97247.97;5056384;28;20275;-50
2022/06/10 01:18:40;;;;;;;1.83;1.30;;;;;;;10.66;100.00;97246.59;5053197;28;20284;-50
2022/06/10 01:21:49;;;;;;;2.50;1.33;;;;;;;10.66;100.00;97246.59;5053268;28;20292;-50
2022/06/10 01:24:42;;;;;;;1.90;1.50;;;;;;;10.67;100.00;97247.41;5050916;28;20240;-50
2022/06/10 01:27:48;;;;;;;1.63;1.40;;;;;;;10.63;100.00;97246.81;5042364;28;20722;-50
2022/06/10 01:30:49;;;;;;;1.37;1.07;;;;;;;10.62;100.00;97250.44;5046947;28;20239;-50
2022/06/10 01:33:24;;;;;;;1.53;1.33;;;;;;;10.63;100.00;97249.47;5053070;28;20286;-50
2022/06/10 01:35:59;;;;;;;5.53;1.80;;;;;;;10.65;100.00;97252.84;5053424;28;20734;-50
2022/06/10 01:38:29;;;;;;;2.13;1.73;;;;;;;10.63;100.00;97246.81;5053701;28;20286;-50
2022/06/10 01:41:04;;;;;;;3.70;1.40;;;;;;;10.65;100.00;97246.69;5042289;28;20662;-50
2022/06/10 01:43:39;;;;;;;1.67;1.07;;;;;;;10.67;100.00;97247.41;5042121;28;20325;-50
2022/06/10 01:46:10;;;;;;;1.90;1.10;;;;;;;10.67;100.00;97250.03;5052735;28;20290;-50
2022/06/10 01:48:41;;;;;;;3.50;1.60;;;;;;;10.62;100.00;97247.81;5051714;28;20199;-50
2022/06/10 01:51:11;;;;;;;1.43;1.33;;;;;;;10.60;100.00;97244.44;5040636;28;20734;-49
2022/06/10 01:53:42;;;;;;;1.70;1.43;;;;;;;10.59;100.00;97250.72;5052820;28;20284;-50
2022/06/10 01:56:17;;;;;;;2.40;1.50;;;;;;;10.59;100.00;97256.00;5053724;28;20207;-50
2022/06/10 01:58:46;;;;;;;1.43;1.37;;;;;;;10.60;100.00;97256.81;5042631;28;20289;-49
2022/06/10 02:01:16;;;;;;;2.83;1.50;;;;;;;10.57;100.00;97259.72;5053643;28;20299;-50
2022/06/10 02:03:48;;;;;;;3.53;1.60;;;;;;;10.57;100.00;97255.28;5053117;28;20203;-50
2022/06/10 02:06:18;;;;;;;1.80;1.50;;;;;;;10.59;100.00;97261.28;5050521;28;20708;-50
2022/06/10 02:08:49;;;;;;;2.13;1.53;;;;;;;10.56;100.00;97264.16;5055516;28;20293;-50
2022/06/10 02:11:20;;;;;;;1.60;1.50;;;;;;;10.55;100.00;97264.31;5057083;28;20235;-50
2022/06/10 02:13:53;;;;;;;2.10;1.40;;;;;;;10.56;100.00;97272.09;5057283;28;20292;-50
2022/06/10 02:16:23;;;;;;;3.37;1.47;;;;;;;10.48;100.00;97263.97;5057048;28;20722;-49
2022/06/10 02:18:55;;;;;;;2.73;1.60;;;;;;;10.49;100.00;97265.63;5054779;28;20286;-50
2022/06/10 02:21:27;;;;;;;1.73;1.63;;;;;;;10.51;100.00;97274.31;5051744;28;20340;-50
2022/06/10 02:23:58;;;;;;;1.60;1.50;;;;;;;10.52;100.00;97276.00;5057307;28;20573;-50
2022/06/10 02:26:26;;;;;;;3.67;1.93;;;;;;;10.53;100.00;97288.22;5057171;28;20205;-50
2022/06/10 02:28:54;;;;;;;2.30;1.30;;;;;;;10.57;100.00;97281.72;5056615;28;20605;-50
2022/06/10 02:31:23;;;;;;;1.80;1.70;;;;;;;10.59;100.00;97282.44;5057147;28;20316;-50
2022/06/10 02:33:51;;;;;;;3.03;1.80;;;;;;;10.59;100.00;97279.81;5056536;28;20286;-50
2022/06/10 02:36:23;;;;;;;1.67;1.57;;;;;;;10.58;100.00;97280.75;5056245;28;20203;-50
2022/06/10 02:38:59;;;;;;;2.60;1.77;;;;;;;10.63;100.00;97277.75;5057213;28;20201;-50
2022/06/10 02:41:32;;;;;;;4.00;1.70;;;;;;;10.67;100.00;97279.13;5056912;28;20210;-50
2022/06/10 02:44:05;;;;;;;2.07;1.37;;;;;;;10.69;100.00;97286.00;5056673;28;20265;-50
2022/06/10 02:46:40;;;;;;;1.50;1.40;;;;;;;10.63;100.00;97281.19;5056541;28;20195;-50
2022/06/10 02:49:10;;;;;;;1.60;1.50;;;;;;;10.68;100.00;97283.47;5056652;28;20934;-50
2022/06/10 02:51:37;;;;;;;3.10;1.80;;;;;;;10.65;100.00;97281.09;5058225;28;20301;-50
2022/06/10 02:54:07;;;;;;;3.90;2.10;;;;;;;10.66;100.00;97280.13;5061043;28;20212;-50
2022/06/10 02:56:33;;;;;;;2.00;1.50;;;;;;;10.62;100.00;97291.94;5059322;28;20203;-50
2022/06/10 03:01:52;;;;;;;1.80;1.70;;;;;;;10.70;100.00;97279.72;5056627;28;20197;-50
2022/06/10 03:04:31;;;;;;;2.33;2.07;;;;;;;10.69;100.00;97286.00;5064317;28;20292;-51
2022/06/10 03:07:15;;;;;;;1.67;1.57;;;;;;;10.71;100.00;97294.63;5044957;28;20590;-50
2022/06/10 03:09:58;;;;;;;4.53;2.00;;;;;;;10.63;100.00;97291.78;5056633;28;20207;-49
2022/06/10 03:12:31;;;;;;;2.37;1.73;;;;;;;10.67;100.00;97293.22;5056652;28;20527;-50
2022/06/10 03:15:09;;;;;;;3.87;1.80;;;;;;;10.68;100.00;97286.97;5055503;28;20296;-50
2022/06/10 03:17:43;;;;;;;2.10;1.60;;;;;;;10.60;100.00;97286.75;5055483;28;20325;-50
2022/06/10 03:20:17;;;;;;;2.00;1.90;;;;;;;10.58;100.00;97296.63;5056389;28;20298;-50
2022/06/10 03:23:04;;;;;;;3.03;2.07;;;;;;;10.55;100.00;97296.88;5056210;28;20203;-50
2022/06/10 03:25:37;;;;;;;3.47;1.90;;;;;;;10.46;100.00;97292.34;5063895;28;20287;-50
2022/06/10 03:28:13;;;;;;;1.93;1.50;;;;;;;10.41;100.00;97294.53;5050949;28;20203;-50
2022/06/10 03:30:44;;;;;;;1.57;1.47;;;;;;;10.39;100.00;97302.59;5048448;28;20199;-49
2022/06/10 03:33:19;;;;;;;2.17;2.07;;;;;;;10.38;100.00;97308.03;5055848;28;20220;-51
2022/06/10 03:35:49;;;;;;;3.90;1.70;;;;;;;10.36;100.00;97297.56;5055706;28;20230;-50
2022/06/10 03:38:16;;;;;;;1.70;1.60;;;;;;;10.35;100.00;97300.31;5063895;28;20229;-50
2022/06/10 03:40:45;;;;;;;2.10;2.00;;;;;;;10.36;100.00;97307.28;5075831;28;20765;-50
2022/06/10 03:43:14;;;;;;;2.60;1.60;;;;;;;10.34;100.00;97311.88;5075878;28;20579;-50
2022/06/10 03:45:43;;;;;;;1.80;1.70;;;;;;;10.32;100.00;97311.13;5066160;28;20274;-50
2022/06/10 03:48:15;;;;;;;2.20;1.80;;;;;;;10.41;100.00;97310.41;5055941;28;20643;-51
2022/06/10 03:50:43;;;;;;;1.50;1.40;;;;;;;10.42;100.00;97317.34;5056100;28;20285;-50
2022/06/10 03:53:16;;;;;;;2.80;1.53;;;;;;;10.37;100.00;97308.97;5056197;28;20233;-50
2022/06/10 03:55:42;;;;;;;3.47;1.83;;;;;;;10.35;100.00;97318.81;5055565;28;20282;-50
2022/06/10 03:58:10;;;;;;;1.83;1.63;;;;;;;10.31;100.00;97320.03;5055896;28;20241;-50
2022/06/10 04:00:37;;;;;;;2.47;1.53;;;;;;;10.36;100.00;97317.84;5052540;28;20647;-50
2022/06/10 04:03:05;;;;;;;6.20;1.77;;;;;;;10.41;100.00;97315.69;5055061;28;20286;-50
2022/06/10 04:05:32;;;;;;;3.63;1.60;;;;;;;10.44;100.00;97323.38;5055714;28;20707;-49
2022/06/10 04:07:59;;;;;;;1.63;1.53;;;;;;;10.44;100.00;97326.00;5052496;28;20267;-50
2022/06/10 04:10:28;;;;;;;2.93;2.00;;;;;;;10.44;100.00;97326.84;5061017;28;20301;-50
2022/06/10 04:12:55;;;;;;;2.27;2.07;;;;;;;10.58;100.00;97323.06;5076376;28;20275;-50
2022/06/10 04:15:24;;;;;;;2.40;2.20;;;;;;;10.80;100.00;97322.97;5076832;28;20305;-49
2022/06/10 04:17:53;;;;;;;2.10;2.00;;;;;;;11.18;100.00;97330.34;5068714;28;20237;-50
2022/06/10 04:20:22;;;;;;;2.17;1.90;;;;;;;11.60;100.00;97332.94;5045336;28;20289;-50
2022/06/10 04:22:49;;;;;;;3.33;2.03;;;;;;;11.79;100.00;97333.91;5058605;28;20278;-50
2022/06/10 04:25:15;;;;;;;2.20;2.00;;;;;;;11.87;100.00;97333.19;5060685;28;20242;-50
2022/06/10 04:27:44;;;;;;;2.67;1.90;;;;;;;12.16;100.00;97341.25;5065411;28;20256;-50
2022/06/10 04:30:18;;;;;;;2.20;2.00;;;;;;;12.37;100.00;97340.19;5077876;28;20198;-50
2022/06/10 04:32:45;;;;;;;4.03;2.10;;;;;;;12.52;100.00;97332.66;5078859;28;20225;-50
2022/06/10 04:35:12;;;;;;;2.33;2.10;;;;;;;12.39;100.00;97338.25;5078843;28;20201;-50
2022/06/10 04:37:39;;;;;;;2.40;2.20;;;;;;;12.45;100.00;97335.03;5078909;28;20241;-51
2022/06/10 04:40:07;;;;;;;3.40;2.37;;;;;;;12.59;100.00;97340.91;5078147;28;20222;-50
2022/06/10 04:42:34;;;;;;;2.87;2.27;;;;;;;12.70;100.00;97341.63;5075714;28;20199;-50
2022/06/10 04:45:03;;;;;;;5.07;2.83;;;;;;;12.84;100.00;97338.56;5078264;28;20215;-50
2022/06/10 04:47:29;;;;;;;3.10;2.10;;;;;;;12.87;99.57;97343.56;5077823;28;20217;-50
2022/06/10 04:49:59;;;;;;;4.30;2.70;;;;;;;13.10;97.86;97345.97;5070362;28;20212;-50
2022/06/10 04:52:26;;;;;;;2.97;2.47;;;;;;;13.22;99.65;97344.81;5057938;28;20210;-51
2022/06/10 04:54:53;;;;;;;2.80;2.60;;;;;;;13.52;99.40;97344.63;5054766;28;20211;-50
2022/06/10 04:57:19;;;;;;;2.90;2.47;;;;;;;13.61;95.95;97343.75;5053358;28;20742;-50
2022/06/10 04:59:46;;;;;;;2.33;2.13;;;;;;;13.55;94.75;97346.16;5054737;28;20217;-50
2022/06/10 05:02:14;;;;;;;3.70;2.23;;;;;;;13.51;94.08;97347.41;5054550;28;20202;-50
2022/06/10 05:04:41;;;;;;;3.07;2.03;;;;;;;13.51;95.96;97350.91;5073323;28;20213;-50
2022/06/10 05:07:08;;;;;;;6.03;2.50;;;;;;;13.47;94.83;97349.53;5052046;28;20207;-51
2022/06/10 05:09:34;;;;;;;4.97;2.60;;;;;;;13.34;95.72;97343.69;5052208;28;20293;-50
2022/06/10 05:12:02;;;;;;;7.07;2.50;;;;;;;13.41;95.18;97347.47;5049895;28;20594;-50
2022/06/10 05:14:31;;;;;;;3.80;2.00;;;;;;;13.50;97.26;97349.25;5046633;28;20302;-50
2022/06/10 05:17:00;;;;;;;2.47;2.27;;;;;;;13.61;97.83;97349.06;5054204;28;20211;-50
2022/06/10 05:19:29;;;;;;;6.40;2.77;;;;;;;13.68;96.85;97351.97;5054586;28;20269;-50
2022/06/10 05:22:00;;;;;;;2.60;2.40;;;;;;;13.86;97.05;97356.41;5053963;28;20207;-50
2022/06/10 05:24:28;;;;;;;4.83;2.87;;;;;;;14.09;96.00;97361.34;5053266;28;20543;-49
2022/06/10 05:26:55;;;;;;;5.07;2.93;;;;;;;14.17;91.66;97356.16;5044606;28;20235;-49
2022/06/10 05:29:22;;;;;;;3.53;3.10;;;;;;;14.29;92.31;97352.28;5039025;28;20291;-49
2022/06/10 05:31:49;;;;;;;3.23;2.93;;;;;;;14.47;91.37;97352.34;5045805;28;20294;-50
2022/06/10 05:37:05;;;;;;;4.57;2.90;;;;;;;14.98;90.27;97351.69;5046804;28;20209;-50
2022/06/10 05:39:33;;;;;;;4.53;2.57;;;;;;;15.12;89.90;97340.50;5053724;28;20199;-50
2022/06/10 05:42:07;;;;;;;6.20;3.00;;;;;;;15.10;90.95;97350.44;5068915;28;20257;-50
2022/06/10 05:44:36;;;;;;;4.47;3.23;;;;;;;15.34;89.20;97348.81;5044047;28;20235;-50
2022/06/10 05:47:03;;;;;;;3.27;2.93;;;;;;;15.49;87.77;97357.13;5053493;28;20691;-50
2022/06/10 05:49:30;;;;;;;3.97;3.00;;;;;;;15.71;87.35;97361.94;5057915;28;20794;-50
2022/06/10 05:51:57;;;;;;;4.67;2.80;;;;;;;15.96;86.23;97359.41;5053940;28;20232;-50
2022/06/10 05:54:25;;;;;;;2.63;2.43;;;;;;;16.06;86.13;97358.28;5051635;28;20282;-50
2022/06/10 05:56:52;;;;;;;7.10;2.90;;;;;;;16.45;84.35;97366.63;5058678;28;20289;-48
2022/06/10 05:59:22;;;;;;;3.72;2.80;;;;;;;16.51;82.53;97365.97;5078353;28;20226;-50
2022/06/10 06:01:49;;;;;;;7.78;3.15;;;;;;;16.67;82.39;97363.41;5074328;28;20191;-50
2022/06/10 06:04:15;;;;;;;4.88;2.60;;;;;;;16.85;81.37;97361.44;5062508;28;20298;-50
2022/06/10 06:06:43;;;;;;;3.00;2.47;;;;;;;17.05;81.84;97369.13;5053939;28;20294;-50
2022/06/10 06:09:13;;;;;;;4.65;2.80;;;;;;;17.16;80.69;97372.31;5057369;28;20234;-50
2022/06/10 06:11:41;;;;;;;2.65;2.40;;;;;;;17.20;78.33;97371.00;5044801;28;20212;-49
2022/06/10 06:14:09;;;;;;;5.15;2.90;;;;;;;17.45;77.76;97366.47;5053682;28;20277;-49
2022/06/10 06:16:36;;;;;;;4.93;2.65;;;;;;;17.76;76.23;97372.81;5044957;28;20825;-49
2022/06/10 06:19:03;;;;;;;4.18;2.60;;;;;;;17.87;76.72;97369.78;5057062;28;20223;-50
2022/06/10 06:21:31;;;;;;;7.50;3.10;;;;;;;17.93;73.21;97370.94;5057985;28;20305;-50
2022/06/10 06:23:58;;;;;;;3.40;2.72;;;;;;;17.89;77.71;97367.75;5057680;28;20207;-50
2022/06/10 06:26:24;;;;;;;3.20;2.58;;;;;;;18.17;75.07;97367.38;5056129;28;20298;-51
2022/06/10 06:28:53;;;;;;;3.58;2.70;;;;;;;18.18;75.79;97369.00;5047099;28;20595;-49
2022/06/10 06:31:22;;;;;;;3.25;2.50;;;;;;;18.36;72.79;97374.97;5048603;28;20282;-50
2022/06/10 06:33:50;;;;;;;3.42;2.95;;;;;;;18.37;73.92;97369.47;5057535;28;20203;-49
2022/06/10 06:36:20;;;;;;;3.45;2.00;;;;;;;18.91;70.81;97374.91;5057601;28;20639;-49
2022/06/10 06:38:47;;;;;;;3.58;2.30;;;;;;;18.82;71.74;97367.91;5057559;28;20314;-50
2022/06/10 06:41:15;;;;;;;4.57;1.77;;;;;;;18.85;69.96;97368.38;5056272;28;20636;-49
2022/06/10 06:43:42;;;;;;;3.45;2.20;;;;;;;18.95;70.09;97375.38;5057241;28;20239;-50
2022/06/10 06:46:16;;;;;;;4.65;2.30;;;;;;;19.37;69.46;97367.69;5052266;28;20238;-50
2022/06/10 06:48:45;;;;;;;5.47;2.35;;;;;;;19.60;67.37;97368.53;5057151;28;20212;-50
2022/06/10 06:51:12;;;;;;;3.05;2.30;;;;;;;19.66;66.42;97366.97;5043938;28;20290;-49
2022/06/10 06:53:38;;;;;;;5.72;2.45;;;;;;;19.51;66.26;97364.25;5070047;28;20289;-50
2022/06/10 06:56:06;;;;;;;5.10;2.40;;;;;;;19.62;68.30;97363.81;5048982;28;20214;-50
2022/06/10 06:58:33;;;;;;;4.85;2.03;;;;;;;19.95;66.38;97366.16;5055200;28;20234;-50
2022/06/10 07:01:01;;;;;;;2.30;1.50;;;;;;;19.68;65.51;97368.47;5052208;28;20220;-50
2022/06/10 07:03:29;;;;;;;1.83;1.60;;;;;;;19.82;64.85;97367.66;5051829;28;20203;-50
2022/06/10 07:05:56;;;;;;;4.30;1.70;;;;;;;19.88;64.05;97363.38;5049012;28;20267;-50
2022/06/10 07:08:31;;;;;;;1.92;1.67;;;;;;;20.29;64.00;97361.13;5048888;28;20510;-51
2022/06/10 07:10:58;;;;;;;2.42;1.45;;;;;;;20.43;60.66;97364.81;5045639;28;20202;-49
2022/06/10 07:13:24;;;;;;;3.42;1.45;;;;;;;20.44;60.91;97364.59;5057017;28;20298;-49
2022/06/10 07:15:54;;;;;;;4.50;1.83;;;;;;;20.82;60.47;97368.84;5054517;28;20279;-50
2022/06/10 07:18:21;;;;;;;1.73;1.60;;;;;;;21.25;58.30;97366.22;5049997;28;20659;-50
2022/06/10 07:20:49;;;;;;;3.05;1.50;;;;;;;21.27;59.84;97364.16;5050073;28;20204;-49
2022/06/10 07:23:16;;;;;;;3.60;1.48;;;;;;;21.13;58.99;97365.03;5052558;28;20658;-49
2022/06/10 07:25:44;;;;;;;2.97;1.70;;;;;;;21.12;58.82;97366.06;5055167;28;20611;-50
2022/06/10 07:28:11;;;;;;;2.95;1.77;;;;;;;21.30;60.10;97369.13;5056808;28;20231;-50
2022/06/10 07:30:39;;;;;;;2.03;1.80;;;;;;;21.48;59.22;97364.13;5045094;28;20204;-49
2022/06/10 07:33:06;;;;;;;7.57;2.60;;;;;;;21.41;58.85;97367.78;5052060;28;20217;-49
2022/06/10 07:35:34;;;;;;;3.95;2.00;;;;;;;21.53;57.81;97364.41;5056838;28;20226;-50
2022/06/10 07:38:03;;;;;;;4.32;1.80;;;;;;;21.67;59.24;97357.25;5056577;28;20206;-50
2022/06/10 07:43:17;;;;;;;2.42;2.10;;;;;;;22.41;56.14;97355.69;5056510;28;20237;-50
2022/06/10 07:45:46;;;;;;;3.15;2.10;;;;;;;22.24;55.47;97347.13;5059903;28;20249;-49
2022/06/10 07:48:13;;;;;;;2.67;2.05;;;;;;;22.48;56.55;97343.09;5055782;28;20278;-48
2022/06/10 07:50:41;;;;;;;4.57;2.10;;;;;;;22.36;55.03;97346.53;5049769;28;20597;-49
2022/06/10 07:53:08;;;;;;;4.25;2.15;;;;;;;22.30;54.08;97342.78;5060579;28;20238;-50
2022/06/10 07:55:36;;;;;;;4.05;2.10;;;;;;;22.30;54.38;97346.31;5058143;28;20659;-50
2022/06/10 07:58:07;;;;;;;3.20;2.05;;;;;;;22.32;54.21;97343.41;5046940;28;20278;-49
2022/06/10 08:00:35;;;;;;;3.40;1.88;;;;;;;22.84;55.05;97342.00;5052479;28;20745;-50
2022/06/10 08:03:02;;;;;;;5.97;1.98;;;;;;;22.80;57.38;97336.19;5055801;28;20200;-49
2022/06/10 08:05:30;;;;;;;2.60;1.88;;;;;;;22.75;53.56;97335.94;5063426;28;20249;-50
2022/06/10 08:07:57;;;;;;;3.65;1.95;;;;;;;22.92;52.24;97341.84;5051723;28;20242;-49
2022/06/10 08:10:28;;;;;;;4.20;1.73;;;;;;;23.17;51.89;97338.34;5052866;28;20203;-50
2022/06/10 08:12:55;;;;;;;5.85;2.10;;;;;;;22.93;53.33;97336.22;5055873;28;20241;-49
2022/06/10 08:15:22;;;;;;;4.40;1.90;;;;;;;22.79;50.94;97334.53;5056926;28;20282;-49
2022/06/10 08:17:49;;;;;;;3.85;2.15;;;;;;;22.97;50.23;97328.53;5057128;28;20238;-50
2022/06/10 08:20:20;;;;;;;2.65;1.88;;;;;;;23.24;51.99;97333.78;5059061;28;20544;-50
2022/06/10 08:22:46;;;;;;;5.13;2.38;;;;;;;23.45;50.41;97331.97;5073112;28;20213;-50
2022/06/10 08:25:13;;;;;;;3.50;1.75;;;;;;;23.44;52.33;97336.56;5053249;28;20195;-49
2022/06/10 08:27:41;;;;;;;4.45;2.22;;;;;;;23.14;51.21;97327.13;5065513;28;20275;-51
2022/06/10 08:30:13;;;;;;;4.88;1.90;;;;;;;23.21;51.90;97317.16;5062812;28;20231;-51
2022/06/10 08:32:40;;;;;;;4.88;2.55;;;;;;;23.53;49.79;97319.09;5060753;28;20224;-51
2022/06/10 08:35:07;;;;;;;3.42;1.70;;;;;;;23.30;50.96;97316.78;5066769;28;20239;-49
2022/06/10 08:37:33;;;;;;;3.13;2.15;;;;;;;23.29;50.68;97317.81;5056679;28;20234;-50
2022/06/10 08:40:01;;;;;;;6.47;1.90;;;;;;;23.49;50.73;97323.25;5047815;28;20302;-50
2022/06/10 08:42:37;;;;;;;5.25;2.22;;;;;;;23.66;50.06;97320.97;5045290;28;20287;-51
2022/06/10 08:45:16;;;;;;;4.43;2.08;;;;;;;23.78;47.78;97319.28;5053305;28;20234;-50
2022/06/10 08:47:59;;;;;;;5.85;2.05;;;;;;;23.71;51.78;97319.28;5054967;28;20216;-50
2022/06/10 08:50:57;;;;;;;4.13;1.58;;;;;;;23.69;49.85;97321.38;5054150;28;20591;-51
2022/06/10 08:53:45;;;;;;;3.67;1.80;;;;;;;23.70;47.34;97320.31;5050020;28;20632;-50
2022/06/10 08:56:18;;;;;;;1.92;1.50;;;;;;;24.01;48.42;97318.84;5043626;28;20217;-50
2022/06/10 08:58:54;;;;;;;3.20;1.50;;;;;;;23.93;50.08;97327.16;5054512;28;20306;-51
2022/06/10 09:01:23;;;;;;;4.90;2.22;;;;;;;23.63;50.73;97322.19;5053347;28;20213;-50
2022/06/10 09:03:52;;;;;;;4.65;1.88;;;;;;;23.95;47.47;97325.91;5053328;28;20195;-50
2022/06/10 09:06:23;;;;;;;4.10;1.88;;;;;;;24.10;50.26;97318.41;5054161;28;20298;-51
2022/06/10 09:08:52;;;;;;;2.67;1.50;;;;;;;24.42;50.54;97323.94;5041150;28;20282;-50
2022/06/10 09:11:25;;;;;;;4.30;2.08;;;;;;;23.91;47.36;97319.28;5052706;28;20278;-50
2022/06/10 09:13:56;;;;;;;4.75;1.58;;;;;;;23.67;48.77;97328.84;5041761;28;20209;-50
2022/06/10 09:16:30;;;;;;;4.03;1.60;;;;;;;23.88;47.18;97324.28;5057070;28;20215;-50
2022/06/10 09:19:05;;;;;;;4.50;2.03;;;;;;;24.50;44.28;97318.31;5059021;28;20277;-50
2022/06/10 09:21:40;;;;;;;5.18;1.75;;;;;;;24.41;44.92;97328.53;5057467;28;20671;-50
2022/06/10 09:24:10;;;;;;;3.05;1.70;;;;;;;24.35;47.71;97321.28;5058607;28;20208;-50
2022/06/10 09:26:40;;;;;;;2.90;1.88;;;;;;;24.55;48.97;97321.22;5058106;28;20203;-50
2022/06/10 09:29:08;;;;;;;3.30;1.85;;;;;;;24.60;48.01;97324.94;5052813;28;20195;-50
2022/06/10 09:31:42;;;;;;;2.85;1.58;;;;;;;24.49;47.21;97322.88;5058599;28;20297;-50
2022/06/10 09:34:27;;;;;;;6.32;1.85;;;;;;;23.98;45.93;97319.28;5059570;28;20290;-49
2022/06/10 09:37:12;;;;;;;3.42;1.60;;;;;;;23.87;48.01;97320.75;5058452;28;20648;-50
2022/06/10 09:42:40;;;;;;;5.43;2.00;;;;;;;24.09;48.91;97316.72;5058952;28;20218;-50
2022/06/10 09:45:16;;;;;;;2.50;1.50;;;;;;;24.45;47.56;97313.53;5057920;28;20628;-50
2022/06/10 09:47:56;;;;;;;3.17;1.58;;;;;;;24.17;46.65;97318.41;5052876;28;20286;-49
2022/06/10 09:50:27;;;;;;;3.88;1.88;;;;;;;24.29;47.72;97316.72;5051363;28;20227;-50
2022/06/10 09:53:09;;;;;;;4.05;1.88;;;;;;;24.52;46.76;97316.22;5057221;28;20282;-50
2022/06/10 09:55:45;;;;;;;3.10;1.90;;;;;;;24.71;45.42;97310.72;5052649;28;20210;-50
2022/06/10 09:58:52;;;;;;;2.72;1.40;;;;;;;24.80;44.86;97314.00;5053212;28;20285;-51
2022/06/10 10:01:31;;;;;;;4.85;1.42;;;;;;;24.23;45.16;97306.78;5053252;28;20679;-50
2022/06/10 10:04:16;;;;;;;3.88;1.85;;;;;;;23.48;46.10;97302.69;5051760;28;20199;-50
2022/06/10 10:06:49;;;;;;;3.47;1.27;;;;;;;24.11;44.08;97303.03;5057829;28;20293;-50
2022/06/10 10:09:22;;;;;;;3.33;1.60;;;;;;;23.97;48.48;97298.69;5057379;28;20203;-51
2022/06/10 10:11:56;;;;;;;4.65;1.60;;;;;;;24.26;45.17;97301.78;5042001;28;20313;-51
2022/06/10 10:14:29;;;;;;;4.70;1.88;;;;;;;24.65;41.97;97298.09;5059482;28;20671;-50
2022/06/10 10:17:20;;;;;;;1.20;1.08;;;;;;;25.05;41.96;97300.56;5052577;28;20298;-50
2022/06/10 10:19:57;;;;;;;2.60;1.20;;;;;;;25.12;41.30;97293.22;5054798;28;20307;-50
2022/06/10 10:22:41;;;;;;;3.05;1.30;;;;;;;25.49;41.50;97295.03;5049533;28;20285;-51
2022/06/10 10:25:13;;;;;;;2.72;1.83;;;;;;;25.10;39.29;97306.16;5046006;28;20714;-51
2022/06/10 10:27:40;;;;;;;1.98;1.63;;;;;;;25.42;39.53;97290.72;5055161;28;20282;-51
2022/06/10 10:30:16;;;;;;;2.65;1.50;;;;;;;25.41;40.98;97289.91;5046534;28;20211;-51
2022/06/10 10:32:48;;;;;;;2.03;1.20;;;;;;;24.81;38.30;97290.47;5058035;28;20281;-50
2022/06/10 10:35:21;;;;;;;2.13;1.33;;;;;;;24.78;41.35;97289.88;5048507;28;20212;-51
2022/06/10 10:37:53;;;;;;;2.88;1.45;;;;;;;24.91;39.67;97283.59;5052828;28;20277;-51
2022/06/10 10:40:23;;;;;;;2.50;1.67;;;;;;;24.17;43.11;97285.97;5049885;28;20215;-51
2022/06/10 10:42:53;;;;;;;4.38;2.15;;;;;;;23.50;42.09;97289.81;5057347;28;20261;-51
2022/06/10 10:45:24;;;;;;;4.03;1.70;;;;;;;23.04;42.61;97278.97;5053003;28;20318;-50
2022/06/10 10:47:55;;;;;;;5.90;1.55;;;;;;;23.27;42.89;97273.19;5047730;28;20591;-51
2022/06/10 10:50:29;;;;;;;2.42;1.42;;;;;;;23.83;42.75;97278.97;5057038;28;20294;-50
2022/06/10 10:52:55;;;;;;;1.58;1.20;;;;;;;24.40;44.97;97278.22;5046353;28;20414;-51
2022/06/10 10:55:29;;;;;;;2.92;1.15;;;;;;;24.76;44.47;97286.56;5056941;28;20213;-51
2022/06/10 10:58:06;;;;;;;2.53;1.40;;;;;;;25.07;41.85;97282.25;5046769;28;20616;-50
2022/06/10 11:00:37;;;;;;;1.58;1.30;;;;;;;25.30;40.67;97271.66;5050924;28;20293;-51
2022/06/10 11:03:05;;;;;;;2.15;1.10;;;;;;;25.38;40.07;97268.69;5055230;28;20199;-50
2022/06/10 11:05:35;;;;;;;4.13;1.40;;;;;;;25.16;43.89;97275.50;5054136;28;20287;-51
2022/06/10 11:08:24;;;;;;;2.53;1.23;;;;;;;25.24;40.59;97272.53;5051155;28;20555;-51
2022/06/10 11:11:17;;;;;;;2.08;1.33;;;;;;;24.77;39.88;97274.69;5046954;28;20184;-51
2022/06/10 11:13:54;;;;;;;2.28;1.35;;;;;;;24.61;41.66;97283.31;5051114;28;20196;-50
2022/06/10 11:16:42;;;;;;;3.53;1.45;;;;;;;24.76;41.26;97273.03;5046694;28;20669;-51
2022/06/10 11:19:20;;;;;;;4.00;1.98;;;;;;;24.73;40.47;97276.16;5048069;28;20199;-49
2022/06/10 11:21:57;;;;;;;2.63;1.17;;;;;;;24.96;39.37;97270.25;5043876;28;20194;-51
2022/06/10 11:24:27;;;;;;;3.67;1.23;;;;;;;25.26;38.89;97268.56;5057162;28;20282;-50
2022/06/10 11:26:58;;;;;;;2.67;1.10;;;;;;;25.34;40.43;97262.03;5049791;28;20275;-50
2022/06/10 11:29:28;;;;;;;2.90;1.15;;;;;;;25.15;39.50;97268.47;5056870;28;20191;-52
2022/06/10 11:31:58;;;;;;;2.55;1.17;;;;;;;24.95;40.96;97274.00;5049171;28;20506;-50
2022/06/10 11:34:29;;;;;;;2.50;1.20;;;;;;;25.09;38.69;97261.19;5049453;28;20647;-50
2022/06/10 11:36:59;;;;;;;1.98;0.95;;;;;;;24.78;40.75;97265.53;5046440;28;20198;-50
2022/06/10 11:39:28;;;;;;;3.20;1.30;;;;;;;25.10;40.28;97255.56;5050517;28;20211;-51
2022/06/10 11:42:07;;;;;;;3.90;1.50;;;;;;;24.35;40.50;97260.97;5047961;28;20290;-50
2022/06/10 11:44:37;;;;;;;2.13;1.27;;;;;;;24.69;40.87;97253.28;5056818;28;20242;-50
2022/06/10 11:47:07;;;;;;;1.75;1.13;;;;;;;25.16;40.98;97253.84;5053017;28;20294;-51
2022/06/10 11:49:37;;;;;;;3.05;1.50;;;;;;;25.20;38.79;97247.78;5049343;28;20253;-50
2022/06/10 11:52:10;;;;;;;1.65;1.40;;;;;;;25.04;38.66;97255.63;5042421;28;20277;-50
2022/06/10 11:54:43;;;;;;;1.92;1.25;;;;;;;25.22;38.33;97251.09;5043104;28;20284;-50
2022/06/10 12:00:06;;;;;;;3.00;1.15;;;;;;;25.32;38.98;97249.78;5061250;28;20222;-52
2022/06/10 12:02:37;;;;;;;1.48;1.23;;;;;;;25.35;36.88;97242.03;5068834;28;20179;-52